createdAt,value
2022-09-07T00:03:29.208Z,3.30
2022-09-07T00:08:34.470Z,3.20
2022-09-07T00:13:40.307Z,3.13
2022-09-07T00:18:46.286Z,3.28
2022-09-07T00:23:51.892Z,2.90
2022-09-07T00:28:58.386Z,2.80
2022-09-07T00:34:02.899Z,2.90
2022-09-07T00:39:07.579Z,2.60
2022-09-07T00:45:01.746Z,2.95
2022-09-07T00:50:09.371Z,2.63
2022-09-07T00:55:17.021Z,2.63
2022-09-07T01:00:20.370Z,2.85
2022-09-07T01:05:28.662Z,2.70
2022-09-07T01:10:33.678Z,2.92
2022-09-07T01:15:46.653Z,2.63
2022-09-07T01:21:25.498Z,2.53
2022-09-07T01:27:00.827Z,2.60
2022-09-07T01:32:13.174Z,2.90
2022-09-07T01:37:22.219Z,3.67
2022-09-07T01:42:32.754Z,2.58
2022-09-07T01:47:42.362Z,2.40
2022-09-07T01:52:51.955Z,2.83
2022-09-07T01:58:00.643Z,2.55
2022-09-07T02:03:12.084Z,2.90
2022-09-07T02:08:20.305Z,3.20
2022-09-07T02:13:29.501Z,3.10
2022-09-07T02:18:39.556Z,2.95
2022-09-07T02:23:50.100Z,2.70
2022-09-07T02:28:53.579Z,2.75
2022-09-07T02:33:58.325Z,3.00
2022-09-07T02:39:01.916Z,2.90
2022-09-07T02:44:09.272Z,3.70
2022-09-07T02:49:26.671Z,3.08
2022-09-07T02:54:42.901Z,2.45
2022-09-07T02:59:56.846Z,2.72
2022-09-07T03:05:06.892Z,2.67
2022-09-07T03:10:11.142Z,3.17
2022-09-07T03:15:16.772Z,2.67
2022-09-07T03:20:23.540Z,2.92
2022-09-07T03:25:27.186Z,2.63
2022-09-07T03:30:30.679Z,2.65
2022-09-07T03:35:35.635Z,2.45
2022-09-07T03:40:39.086Z,3.38
2022-09-07T03:45:43.137Z,3.00
2022-09-07T03:50:56.924Z,2.65
2022-09-07T03:56:02.555Z,2.60
2022-09-07T04:01:08.252Z,3.40
2022-09-07T04:06:13.513Z,2.95
2022-09-07T04:11:19.413Z,2.97
2022-09-07T04:16:24.663Z,3.00
2022-09-07T04:21:33.090Z,3.45
2022-09-07T04:26:37.158Z,2.95
2022-09-07T04:31:41.003Z,3.35
2022-09-07T04:36:45.969Z,3.30
2022-09-07T04:41:49.377Z,2.95
2022-09-07T04:46:53.016Z,3.15
2022-09-07T04:51:57.671Z,3.30
2022-09-07T04:57:00.998Z,2.80
2022-09-07T05:02:04.755Z,2.78
2022-09-07T05:07:09.444Z,3.22
2022-09-07T05:12:13.201Z,2.78
2022-09-07T05:17:16.560Z,3.13
2022-09-07T05:22:22.400Z,2.58
2022-09-07T05:27:25.844Z,3.10
2022-09-07T05:32:29.459Z,3.58
2022-09-07T05:37:34.253Z,3.10
2022-09-07T05:42:37.764Z,2.97
2022-09-07T05:47:41.671Z,2.88
2022-09-07T05:52:47.974Z,2.47
2022-09-07T05:57:51.443Z,2.50
2022-09-07T06:02:54.845Z,2.88
2022-09-07T06:07:59.559Z,3.10
2022-09-07T06:13:03.027Z,2.22
2022-09-07T06:18:06.423Z,2.90
2022-09-07T06:23:11.102Z,3.28
2022-09-07T06:28:14.655Z,2.78
2022-09-07T06:33:21.427Z,2.97
2022-09-07T06:38:32.020Z,3.22
2022-09-07T06:43:36.083Z,3.22
2022-09-07T06:48:43.855Z,3.75
2022-09-07T06:53:50.279Z,3.17
2022-09-07T06:58:55.140Z,2.88
2022-09-07T07:03:58.689Z,2.88
2022-09-07T07:09:04.561Z,3.25
2022-09-07T07:14:08.267Z,3.25
2022-09-07T07:19:12.156Z,3.20
2022-09-07T07:24:16.831Z,3.40
2022-09-07T07:29:21.905Z,3.83
2022-09-07T07:34:26.496Z,2.95
2022-09-07T07:50:35.288Z,3.17
2022-09-07T07:55:43.850Z,3.50
2022-09-07T08:00:56.329Z,3.20
2022-09-07T08:06:08.075Z,4.28
2022-09-07T08:11:14.004Z,3.83
2022-09-07T08:16:19.760Z,3.58
2022-09-07T08:21:23.690Z,3.67
2022-09-07T08:26:29.081Z,3.72
2022-09-07T08:31:33.058Z,4.38
2022-09-07T08:36:38.911Z,4.15
2022-09-07T08:42:10.329Z,4.80
2022-09-07T08:47:22.239Z,4.32
2022-09-07T08:52:27.786Z,4.30
2022-09-07T08:57:36.281Z,5.20
2022-09-07T09:02:43.982Z,4.57
2022-09-07T09:07:58.506Z,5.40
2022-09-07T09:13:07.427Z,4.25
2022-09-07T09:18:26.905Z,4.78
2022-09-07T09:23:35.929Z,4.68
2022-09-07T09:28:41.199Z,4.80
2022-09-07T09:33:44.910Z,4.10
2022-09-07T09:38:48.604Z,4.70
2022-09-07T09:43:57.284Z,4.20
2022-09-07T09:49:02.539Z,5.55
2022-09-07T09:54:15.618Z,5.18
2022-09-07T10:04:51.081Z,4.53
2022-09-07T10:09:56.248Z,4.88
2022-09-07T10:15:02.319Z,4.80
2022-09-07T10:20:31.320Z,4.47
2022-09-07T10:25:36.683Z,4.50
2022-09-07T10:31:08.081Z,4.63
2022-09-07T10:36:25.966Z,4.85
2022-09-07T10:41:41.454Z,4.25
2022-09-07T10:46:57.029Z,4.80
2022-09-07T10:52:15.627Z,4.88
2022-09-07T10:57:39.085Z,4.53
2022-09-07T11:09:15.884Z,4.60
2022-09-07T11:14:13.072Z,5.35
2022-09-07T11:19:38.983Z,5.15
2022-09-07T11:25:29.089Z,5.40
2022-09-07T11:30:23.671Z,4.88
2022-09-07T11:35:37.876Z,4.88
2022-09-07T11:40:56.527Z,4.68
2022-09-07T11:46:05.019Z,4.35
2022-09-07T11:51:16.949Z,4.78
2022-09-07T11:56:27.525Z,4.95
2022-09-07T12:01:41.283Z,5.10
2022-09-07T12:07:23.724Z,4.22
2022-09-07T12:12:44.747Z,3.95
2022-09-07T12:18:02.071Z,4.15
2022-09-07T12:23:19.068Z,4.40
2022-09-07T12:28:55.895Z,4.85
2022-09-07T12:34:29.245Z,4.50
2022-09-07T12:39:35.090Z,4.72
2022-09-07T12:44:40.135Z,4.07
2022-09-07T12:50:10.150Z,4.82
2022-09-07T12:56:15.541Z,4.93
2022-09-07T13:01:13.197Z,4.70
2022-09-07T13:11:55.780Z,4.03
2022-09-07T13:17:41.629Z,4.20
2022-09-07T13:23:20.794Z,3.92
2022-09-07T13:28:32.521Z,5.28
2022-09-07T13:33:48.378Z,4.20
2022-09-07T13:38:52.618Z,4.10
2022-09-07T13:44:01.889Z,4.63
2022-09-07T13:49:18.323Z,4.03
2022-09-07T13:54:28.848Z,4.15
2022-09-07T13:59:36.309Z,4.00
2022-09-07T14:04:43.397Z,5.28
2022-09-07T14:09:48.932Z,4.50
2022-09-07T14:15:20.393Z,4.75
2022-09-07T14:20:25.396Z,4.20
2022-09-07T14:25:29.514Z,4.28
2022-09-07T14:30:34.735Z,4.35
2022-09-07T14:35:40.524Z,4.40
2022-09-07T14:40:45.192Z,4.15
2022-09-07T14:45:51.384Z,4.25
2022-09-07T14:51:18.519Z,9.35
2022-09-07T14:56:21.902Z,4.47
2022-09-07T15:01:43.607Z,4.20
2022-09-07T15:07:03.267Z,4.53
2022-09-07T15:12:27.141Z,4.35
2022-09-07T15:17:45.279Z,3.88
2022-09-07T15:22:48.748Z,4.28
2022-09-07T15:27:52.163Z,4.38
2022-09-07T15:32:57.732Z,4.82
2022-09-07T15:43:32.350Z,4.27
2022-09-07T15:48:50.592Z,4.10
2022-09-07T15:59:17.305Z,3.78
2022-09-07T16:04:24.034Z,4.40
2022-09-07T16:09:28.201Z,4.28
2022-09-07T16:14:35.045Z,4.53
2022-09-07T16:19:41.432Z,3.90
2022-09-07T16:24:44.776Z,3.92
2022-09-07T16:29:48.370Z,4.60
2022-09-07T16:34:53.163Z,4.32
2022-09-07T16:39:56.716Z,4.80
2022-09-07T16:46:02.714Z,4.32
2022-09-07T16:50:24.724Z,4.32
2022-09-07T16:55:28.009Z,4.30
2022-09-07T17:00:33.993Z,5.05
2022-09-07T17:05:41.321Z,5.35
2022-09-07T17:10:45.295Z,5.20
2022-09-07T17:15:50.767Z,6.57
2022-09-07T17:20:58.740Z,5.63
2022-09-07T17:26:06.428Z,4.53
2022-09-07T17:32:23.985Z,4.78
2022-09-07T17:36:39.274Z,5.85
2022-09-07T17:41:42.650Z,5.03
2022-09-07T17:46:47.688Z,5.20
2022-09-07T17:51:52.434Z,4.80
2022-09-07T17:56:55.800Z,5.22
2022-09-07T18:01:59.553Z,5.25
2022-09-07T18:07:04.634Z,5.32
2022-09-07T18:12:08.239Z,6.00
2022-09-07T18:17:12.507Z,6.10
2022-09-07T18:22:17.486Z,6.72
2022-09-07T18:27:25.514Z,5.50
2022-09-07T18:32:29.154Z,4.75
2022-09-07T18:37:33.931Z,5.55
2022-09-07T18:42:37.364Z,5.65
2022-09-07T18:47:45.413Z,6.45
2022-09-07T18:52:53.563Z,6.30
2022-09-07T18:57:57.377Z,6.65
2022-09-07T19:03:00.948Z,7.93
2022-09-07T19:08:05.739Z,8.00
2022-09-07T19:13:09.183Z,7.78
2022-09-07T19:18:12.577Z,8.40
2022-09-07T19:23:17.550Z,8.07
2022-09-07T19:28:21.680Z,8.98
2022-09-07T19:33:25.278Z,9.65
2022-09-07T19:38:30.206Z,10.82
2022-09-07T19:43:35.273Z,13.95
2022-09-07T19:48:38.988Z,8.48
2022-09-07T19:53:45.887Z,8.60
2022-09-07T19:58:50.746Z,7.60
2022-09-07T20:03:58.787Z,6.90
2022-09-07T20:09:03.680Z,7.72
2022-09-07T20:14:07.796Z,7.68
2022-09-07T20:19:14.551Z,6.82
2022-09-07T20:24:22.528Z,6.78
2022-09-07T20:29:28.482Z,6.90
2022-09-07T20:34:32.915Z,7.03
2022-09-07T20:39:39.607Z,7.03
2022-09-07T20:44:43.184Z,7.15
2022-09-07T20:49:46.951Z,7.60
2022-09-07T20:54:51.897Z,7.97
2022-09-07T20:59:55.447Z,7.97
2022-09-07T21:04:58.890Z,8.70
2022-09-07T21:10:06.797Z,7.43
2022-09-07T21:15:11.340Z,6.60
2022-09-07T21:20:15.871Z,6.93
2022-09-07T21:25:20.993Z,7.32
2022-09-07T21:30:24.633Z,7.20
2022-09-07T21:35:31.124Z,7.15
2022-09-07T21:40:35.794Z,7.50
2022-09-07T21:45:39.101Z,7.60
2022-09-07T21:50:42.418Z,8.13
2022-09-07T21:55:56.016Z,8.02
2022-09-07T22:01:01.316Z,7.90
2022-09-07T22:06:07.215Z,7.38
2022-09-07T22:11:14.101Z,7.13
2022-09-07T22:16:18.310Z,10.25
2022-09-07T22:21:24.042Z,8.40
2022-09-07T22:26:30.776Z,7.13
2022-09-07T22:31:36.626Z,7.47
2022-09-07T22:36:42.763Z,7.90
2022-09-07T22:41:49.081Z,7.30
2022-09-07T22:46:52.665Z,7.70
2022-09-07T22:51:55.921Z,8.10
2022-09-07T22:57:00.582Z,13.75
2022-09-07T23:02:03.974Z,9.38
2022-09-07T23:07:07.751Z,7.93
2022-09-07T23:12:12.574Z,8.70
2022-09-07T23:17:15.870Z,9.40
2022-09-07T23:22:19.423Z,8.77
2022-09-07T23:27:24.113Z,9.75
2022-09-07T23:32:27.743Z,9.73
2022-09-07T23:37:31.075Z,8.63
2022-09-07T23:42:35.999Z,9.38
2022-09-07T23:47:39.574Z,9.43
2022-09-07T23:52:42.894Z,10.02
2022-09-07T23:57:48.577Z,11.60
